< Typhoon 201622 2016 Season Typhoon 201624 >
Typhoon 201623 (MEARI)
General InformationTrack Information on Google MapsDetailed Wind InformationForecast History on Google MapsAccess Analytics MapList of All Images || NewsDisaster Info.WeblogTrackbackTyphoon FrontTwiphoonTyphoon Now!Typhoon ImaginationJMA Disaster Info. XMLResourceGoogle EarthGE AnimationAtom FeedGeoJSON
Detalied Best Track (Time Zone = UTC)
Year Month Day Hour Lat. Long. Pressure (hPa) Wind (kt) Class Image Chart
2016 10 30 18 10.1 146.9 1004 0 2 Image Chart
2016 10 31 00 10.5 146.2 1004 0 2 Image Chart
2016 10 31 06 10.5 145.2 1002 0 2 Image Chart
2016 10 31 12 10.3 144.1 1002 0 2 Image Chart
2016 10 31 18 10.3 143.5 1002 0 2 Image Chart
2016 11 1 00 10.5 142.5 1002 0 2 Image Chart
2016 11 1 06 10.9 141.6 1000 0 2 Image Chart
2016 11 1 12 11.7 139.9 1000 0 2 Image Chart
2016 11 1 18 11.8 138.7 1000 0 2 Image Chart
2016 11 2 00 12.3 138.1 1000 0 2 Image Chart
2016 11 2 06 12.6 137.8 1000 0 2 Image Chart
2016 11 2 12 12.9 137.6 1000 0 2 Image Chart
2016 11 2 18 13.1 137.4 998 0 2 Image Chart
2016 11 3 00 13.3 137.3 996 35 3 Image Chart
2016 11 3 06 13.7 137.3 996 35 3 Image Chart
2016 11 3 12 14.0 137.4 996 35 3 Image Chart
2016 11 3 18 14.3 137.9 992 40 3 Image Chart
2016 11 4 00 15.0 138.8 990 45 3 Image Chart
2016 11 4 06 15.6 139.1 985 55 4 Image Chart
2016 11 4 12 16.2 139.3 985 55 4 Image Chart
2016 11 4 18 16.8 139.4 975 60 4 Image Chart
2016 11 5 00 17.2 139.9 970 65 5 Image Chart
2016 11 5 06 17.5 140.3 965 70 5 Image Chart
2016 11 5 12 18.3 140.7 960 75 5 Image Chart
2016 11 5 18 18.6 141.8 960 75 5 Image Chart
2016 11 6 00 19.5 142.5 960 75 5 Image Chart
2016 11 6 06 20.7 143.6 960 75 5 Image Chart
2016 11 6 12 22.2 144.8 960 75 5 Image Chart
2016 11 6 18 24.3 146.1 965 70 5 Image Chart
2016 11 7 00 27.3 147.0 970 65 5 Image Chart
2016 11 7 06 28.3 147.5 976 0 6 Image Chart
2016 11 7 12 28.8 148.0 980 0 6 Image Chart
2016 11 7 18 29.2 149.1 984 0 6 Image Chart
2016 11 8 00 30.6 150.5 988 0 6 Image Chart
2016 11 8 06 31.9 152.2 992 0 6 Image Chart
2016 11 8 12 33.3 154.6 996 0 6 Image Chart
2016 11 8 18 34.9 157.1 998 0 6 Image Chart
2016 11 9 00 36.5 161.0 1000 0 6 Image Chart
2016 11 9 06 37.7 163.0 1002 0 6 Image Chart
2016 11 9 12 38.4 164.0 1002 0 6 Image Chart
2016 11 9 18 39.0 165.5 1004 0 6 Image Chart
Japan Meteorological Agency Best Track Data | Correction Date : 2016-12-27
< Typhoon 201622 2016 Season Typhoon 201624 >

Help